Time;durP1;ratioP1;P1;durP2;ratioP2;P2;SDS_P1;SDS_P2;PMS_P1;PMS_P2;Temp;Humidity;BMP_temperature;BMP_pressure;BME280_temperature;BME280_humidity;BME280_pressure;Samples;Min_cycle;Max_cycle;Signal;HPM_P1;HPM_P2
2022/04/04 00:00:47;;;;;;;1.88;0.60;;;;;;;19.61;44.11;100829.94;5008128;28;20117;-53
2022/04/04 00:03:13;;;;;;;1.73;0.50;;;;;;;19.60;43.91;100827.47;5008601;28;20184;-54
2022/04/04 00:05:39;;;;;;;1.02;0.30;;;;;;;19.59;44.05;100828.50;5008069;28;20057;-51
2022/04/04 00:08:06;;;;;;;1.90;0.40;;;;;;;19.57;43.94;100826.03;5008016;28;20477;-53
2022/04/04 00:10:31;;;;;;;1.92;0.43;;;;;;;19.56;43.98;100821.75;5008603;28;20117;-50
2022/04/04 00:12:57;;;;;;;1.58;0.30;;;;;;;19.55;44.11;100825.41;5007520;28;20056;-55
2022/04/04 00:15:22;;;;;;;1.63;0.30;;;;;;;19.54;44.01;100824.59;5007425;28;20030;-50
2022/04/04 00:17:48;;;;;;;1.25;0.40;;;;;;;19.53;43.57;100825.59;5007635;28;20038;-55
2022/04/04 00:20:14;;;;;;;0.90;0.40;;;;;;;19.53;44.15;100830.91;5007853;28;20057;-48
2022/04/04 00:22:41;;;;;;;0.70;0.30;;;;;;;19.53;44.04;100824.78;5007019;28;20026;-54
2022/04/04 00:25:08;;;;;;;3.17;0.30;;;;;;;19.51;44.02;100824.16;5003578;28;20034;-54
2022/04/04 00:27:34;;;;;;;1.50;0.40;;;;;;;19.51;44.03;100826.81;5008091;28;20026;-55
2022/04/04 00:30:00;;;;;;;0.75;0.40;;;;;;;19.50;44.10;100822.50;5003148;28;20073;-56
2022/04/04 00:32:26;;;;;;;1.35;0.30;;;;;;;19.49;43.98;100821.69;5005543;28;20034;-53
2022/04/04 00:34:52;;;;;;;2.78;0.35;;;;;;;19.49;44.15;100821.69;5006959;28;20149;-58
2022/04/04 00:37:17;;;;;;;1.55;0.40;;;;;;;19.48;44.15;100820.06;5007286;28;20121;-56
2022/04/04 00:39:42;;;;;;;2.08;0.30;;;;;;;19.47;44.20;100822.91;5005307;28;20172;-50
2022/04/04 00:42:08;;;;;;;1.48;0.50;;;;;;;19.48;44.42;100829.81;5008762;28;20237;-58
2022/04/04 00:44:34;;;;;;;2.45;0.35;;;;;;;19.48;44.29;100820.06;5004288;28;20034;-55
2022/04/04 00:46:59;;;;;;;0.82;0.30;;;;;;;19.50;44.18;100827.78;5008595;28;20048;-55
2022/04/04 00:49:25;;;;;;;0.60;0.30;;;;;;;19.50;44.28;100823.31;5006369;28;20092;-47
2022/04/04 00:51:51;;;;;;;0.85;0.40;;;;;;;19.50;44.30;100825.97;5007747;28;20389;-55
2022/04/04 00:54:18;;;;;;;1.65;0.40;;;;;;;19.50;43.96;100822.50;5006786;28;20077;-49
2022/04/04 00:56:43;;;;;;;1.95;0.63;;;;;;;19.50;43.98;100828.59;5005845;28;20030;-48
2022/04/04 00:59:13;;;;;;;0.77;0.35;;;;;;;19.50;44.02;100825.97;5007359;28;20037;-53
2022/04/04 01:01:40;;;;;;;0.55;0.30;;;;;;;19.50;43.99;100825.97;5006830;28;20042;-52
2022/04/04 01:04:08;;;;;;;1.48;0.50;;;;;;;19.51;44.08;100826.81;5004841;28;20034;-54
2022/04/04 01:06:35;;;;;;;2.25;0.47;;;;;;;19.51;44.03;100824.16;5006700;28;20046;-51
2022/04/04 01:09:02;;;;;;;1.60;0.30;;;;;;;19.50;43.89;100825.16;5003091;28;20448;-52
2022/04/04 01:11:29;;;;;;;2.50;0.40;;;;;;;19.49;44.38;100824.34;5005614;28;20040;-52
2022/04/04 01:13:54;;;;;;;8.45;0.70;;;;;;;19.49;44.30;100826.16;5006003;28;20069;-51
2022/04/04 01:16:20;;;;;;;1.13;0.47;;;;;;;19.46;44.51;100824.72;5006233;28;20068;-49
2022/04/04 01:18:45;;;;;;;2.78;0.50;;;;;;;19.44;44.27;100821.44;5006342;28;20125;-47
2022/04/04 01:21:11;;;;;;;0.88;0.30;;;;;;;19.43;44.33;100819.81;5006785;28;20104;-47
2022/04/04 01:23:43;;;;;;;1.27;0.40;;;;;;;19.41;44.05;100816.56;5004479;28;20404;-53
2022/04/04 01:26:10;;;;;;;3.00;0.47;;;;;;;19.40;44.21;100814.91;5003756;28;20082;-50
2022/04/04 01:28:37;;;;;;;1.35;0.40;;;;;;;19.41;44.17;100823.66;5004017;28;20040;-55
2022/04/04 01:31:04;;;;;;;1.00;0.57;;;;;;;19.38;44.36;100813.47;5005388;28;20029;-50
2022/04/04 01:33:30;;;;;;;2.47;0.40;;;;;;;19.38;44.36;100813.47;5005994;28;20053;-52
2022/04/04 01:35:57;;;;;;;1.13;0.22;;;;;;;19.36;44.07;100813.72;5008021;28;20129;-52
2022/04/04 01:38:23;;;;;;;0.80;0.30;;;;;;;19.35;44.17;100809.44;5006517;28;20033;-46
2022/04/04 01:40:49;;;;;;;2.35;0.50;;;;;;;19.34;44.07;100806.97;5003591;28;20045;-49
2022/04/04 01:43:15;;;;;;;3.30;0.52;;;;;;;19.34;44.25;100810.44;5006300;28;20030;-53
2022/04/04 01:48:24;;;;;;;1.70;0.40;;;;;;;19.32;44.22;100819.56;4996108;28;20452;-53
2022/04/04 01:50:50;;;;;;;2.75;0.50;;;;;;;19.32;44.36;100814.28;5005777;28;20029;-51
2022/04/04 01:53:27;;;;;;;2.13;0.40;;;;;;;19.34;44.32;100814.91;5004920;28;20041;-50
2022/04/04 01:55:55;;;;;;;0.80;0.40;;;;;;;19.33;44.30;100814.09;5004501;28;20505;-51
2022/04/04 01:58:21;;;;;;;1.65;0.40;;;;;;;19.34;44.26;100809.63;5005622;28;20513;-53
2022/04/04 02:00:46;;;;;;;0.95;0.50;;;;;;;19.34;44.22;100813.09;5005859;28;20616;-45
2022/04/04 02:03:12;;;;;;;2.00;0.40;;;;;;;19.34;44.28;100813.09;5006000;28;20061;-53
2022/04/04 02:05:38;;;;;;;1.75;0.40;;;;;;;19.34;44.23;100812.25;4987691;28;20068;-53
2022/04/04 02:08:04;;;;;;;0.80;0.30;;;;;;;19.34;44.32;100810.44;5001760;28;20041;-53
2022/04/04 02:13:05;;;;;;;1.17;0.55;;;;;;;19.32;44.18;100809.81;4753186;22;20277;-50
2022/04/04 02:15:30;;;;;;;1.80;0.40;;;;;;;19.33;44.17;100815.91;5025522;28;20208;-50
2022/04/04 02:17:56;;;;;;;0.82;0.40;;;;;;;19.32;44.22;100812.47;5025016;28;20069;-49
2022/04/04 02:20:22;;;;;;;0.80;0.30;;;;;;;19.31;44.22;100824.03;5024862;28;20069;-53
2022/04/04 02:22:48;;;;;;;2.28;0.30;;;;;;;19.30;44.05;100813.66;5026293;28;20116;-53
2022/04/04 02:25:14;;;;;;;2.90;0.50;;;;;;;19.29;44.38;100815.47;5019622;28;20504;-53
2022/04/04 02:27:40;;;;;;;1.77;0.50;;;;;;;19.27;44.05;100811.41;5026175;28;20041;-52
2022/04/04 02:30:06;;;;;;;1.30;0.40;;;;;;;19.27;44.08;100814.03;5025878;28;20040;-48
2022/04/04 02:32:31;;;;;;;2.72;0.30;;;;;;;19.24;44.27;100812.59;5016712;28;20038;-53
2022/04/04 02:34:57;;;;;;;1.05;0.35;;;;;;;19.24;44.06;100807.31;5020500;28;20087;-48
2022/04/04 02:37:22;;;;;;;1.83;0.30;;;;;;;19.22;44.16;100807.50;5025988;28;20809;-53
2022/04/04 02:39:48;;;;;;;2.30;0.30;;;;;;;19.22;44.09;100812.78;5024796;28;20477;-48
2022/04/04 02:42:13;;;;;;;1.08;0.40;;;;;;;19.23;44.07;100816.25;5026796;28;20108;-50
2022/04/04 02:44:39;;;;;;;2.15;0.30;;;;;;;19.26;44.33;100817.69;5025812;28;20033;-49
2022/04/04 02:47:04;;;;;;;1.45;0.30;;;;;;;19.25;44.13;100818.69;5021508;28;20079;-51
2022/04/04 02:49:30;;;;;;;1.08;0.40;;;;;;;19.24;44.06;100817.88;5017172;28;20161;-53
2022/04/04 02:51:56;;;;;;;3.55;0.40;;;;;;;19.24;44.28;100815.25;5025564;28;20465;-55
2022/04/04 02:54:22;;;;;;;1.85;0.50;;;;;;;19.25;43.92;100811.59;5024292;28;20033;-49
2022/04/04 02:56:47;;;;;;;0.90;0.40;;;;;;;19.26;44.10;100810.59;5024571;28;20038;-50
2022/04/04 02:59:13;;;;;;;1.10;0.30;;;;;;;19.26;44.10;100809.75;5025731;28;20060;-53
2022/04/04 03:01:39;;;;;;;1.08;0.47;;;;;;;19.27;44.21;100806.94;5024483;28;20030;-52
2022/04/04 03:04:04;;;;;;;3.22;0.40;;;;;;;19.27;44.05;100801.66;5010288;28;20025;-51
2022/04/04 03:06:30;;;;;;;1.70;0.52;;;;;;;19.27;44.04;100806.94;5007875;28;20377;-57
2022/04/04 03:08:56;;;;;;;0.75;0.50;;;;;;;19.29;44.06;100809.38;5026394;28;20029;-48
2022/04/04 03:11:22;;;;;;;1.42;0.30;;;;;;;19.27;44.05;100804.28;5024517;28;20057;-56
2022/04/04 03:13:47;;;;;;;1.25;0.50;;;;;;;19.26;44.08;100810.59;5025612;28;20084;-53
2022/04/04 03:16:14;;;;;;;1.45;0.30;;;;;;;19.26;44.08;100815.88;5025210;28;20029;-49
2022/04/04 03:18:40;;;;;;;0.80;0.40;;;;;;;19.27;44.13;100814.03;5012357;28;20036;-50
2022/04/04 03:21:07;;;;;;;2.53;0.40;;;;;;;19.26;44.08;100821.16;5013687;28;20385;-43
2022/04/04 03:23:33;;;;;;;2.08;0.40;;;;;;;19.26;44.06;100831.72;5013765;28;20041;-55
2022/04/04 03:25:59;;;;;;;1.05;0.40;;;;;;;19.25;44.06;100816.88;5016845;28;20562;-50
2022/04/04 03:28:25;;;;;;;0.90;0.40;;;;;;;19.25;44.08;100826.63;5024579;28;20026;-49
2022/04/04 03:30:51;;;;;;;2.80;0.50;;;;;;;19.23;44.15;100826.81;5025355;28;20447;-53
2022/04/04 03:33:17;;;;;;;1.27;0.28;;;;;;;19.21;44.07;100827.00;5025352;28;20037;-49
2022/04/04 03:35:42;;;;;;;2.03;0.30;;;;;;;19.21;44.09;100823.53;5026370;28;20483;-54
2022/04/04 03:38:10;;;;;;;1.27;0.50;;;;;;;19.19;44.11;100826.38;5025759;28;20034;-45
2022/04/04 03:40:37;;;;;;;0.80;0.30;;;;;;;19.20;44.12;100830.66;5028042;28;20057;-51
2022/04/04 03:43:03;;;;;;;1.00;0.40;;;;;;;19.19;43.94;100826.38;5030209;28;20029;-53
2022/04/04 03:45:29;;;;;;;0.70;0.50;;;;;;;19.18;44.09;100829.22;5027877;28;20654;-53
2022/04/04 03:47:55;;;;;;;0.80;0.30;;;;;;;19.17;43.98;100832.84;5025624;28;20029;-51
2022/04/04 03:50:21;;;;;;;0.80;0.30;;;;;;;19.15;44.05;100821.66;5010285;28;20105;-50
2022/04/04 03:52:51;;;;;;;2.50;0.40;;;;;;;19.15;44.05;100826.94;5015244;28;20088;-51
2022/04/04 03:55:18;;;;;;;1.33;0.30;;;;;;;19.12;44.04;100822.06;5025938;28;20037;-53
2022/04/04 03:57:44;;;;;;;1.90;0.70;;;;;;;19.13;44.37;100836.88;5027711;28;20389;-52
2022/04/04 04:00:10;;;;;;;1.08;0.45;;;;;;;19.11;44.17;100829.16;5029667;28;20406;-48
2022/04/04 04:02:37;;;;;;;1.98;0.40;;;;;;;19.10;44.09;100832.81;5026541;28;20034;-47
2022/04/04 04:05:04;;;;;;;1.15;0.50;;;;;;;19.09;44.20;100827.72;5010661;28;20033;-50
2022/04/04 04:07:29;;;;;;;1.52;0.50;;;;;;;19.09;44.24;100835.63;5012456;28;20115;-51
2022/04/04 04:09:55;;;;;;;0.93;0.30;;;;;;;19.07;44.23;100832.38;5026689;28;20144;-55
2022/04/04 04:12:21;;;;;;;1.85;0.52;;;;;;;19.07;44.18;100835.00;5010281;28;20109;-50
2022/04/04 04:14:48;;;;;;;4.55;0.50;;;;;;;19.07;44.24;100827.91;5029245;28;20049;-53
2022/04/04 04:17:15;;;;;;;5.07;0.50;;;;;;;19.09;44.41;100825.88;5018233;28;20399;-45
2022/04/04 04:22:26;;;;;;;2.85;0.43;;;;;;;19.10;44.61;100826.72;5027010;28;20110;-54
2022/04/04 04:24:51;;;;;;;1.92;0.50;;;;;;;19.10;44.40;100835.44;5027665;28;20116;-55
2022/04/04 04:27:17;;;;;;;1.10;0.45;;;;;;;19.10;44.16;100832.00;5029578;28;20496;-54
2022/04/04 04:29:43;;;;;;;4.57;0.47;;;;;;;19.10;44.40;100838.09;5026811;28;20033;-59
2022/04/04 04:32:08;;;;;;;1.90;0.57;;;;;;;19.09;44.40;100831.16;5026313;28;20036;-46
2022/04/04 04:34:34;;;;;;;8.13;1.15;;;;;;;19.11;44.64;100836.25;5023203;28;20072;-54
2022/04/04 04:37:00;;;;;;;9.02;1.33;;;;;;;19.10;44.64;100846.00;5028926;28;20260;-52
2022/04/04 04:39:26;;;;;;;6.25;0.88;;;;;;;19.07;44.91;100841.09;5023504;28;20168;-57
2022/04/04 04:41:52;;;;;;;4.75;0.60;;;;;;;19.07;45.08;100842.94;5028288;28;20017;-47
2022/04/04 04:44:17;;;;;;;7.32;0.52;;;;;;;19.05;45.24;100843.13;5028769;28;20384;-48
2022/04/04 04:46:44;;;;;;;3.55;0.45;;;;;;;19.03;45.40;100842.50;5027815;28;20040;-48
2022/04/04 04:49:10;;;;;;;2.13;0.98;;;;;;;19.04;45.37;100845.94;5026304;28;20141;-46
2022/04/04 04:51:35;;;;;;;1.92;0.30;;;;;;;19.04;45.23;100848.59;5025413;28;20207;-54
2022/04/04 04:54:02;;;;;;;3.53;0.50;;;;;;;19.05;45.14;100856.31;5027007;28;20080;-48
2022/04/04 04:56:27;;;;;;;3.55;0.52;;;;;;;19.06;44.96;100850.03;5023980;28;20044;-48
2022/04/04 04:58:53;;;;;;;1.80;0.52;;;;;;;19.07;44.91;100864.06;5021155;28;20037;-52
2022/04/04 05:01:20;;;;;;;4.47;0.50;;;;;;;19.07;44.74;100858.78;5028303;28;20022;-49
2022/04/04 05:03:45;;;;;;;6.20;0.50;;;;;;;19.08;44.59;100849.84;5024763;28;20040;-47
2022/04/04 05:06:11;;;;;;;2.72;0.50;;;;;;;19.08;44.31;100855.13;5008750;28;20034;-48
2022/04/04 05:08:36;;;;;;;1.50;0.50;;;;;;;19.07;44.19;100854.31;5019017;28;20452;-51
2022/04/04 05:11:02;;;;;;;4.38;0.50;;;;;;;19.08;44.10;100863.06;5025161;28;20032;-55
2022/04/04 05:13:27;;;;;;;1.20;0.43;;;;;;;19.08;44.24;100860.41;5027836;28;20148;-54
2022/04/04 05:15:56;;;;;;;0.98;0.43;;;;;;;19.06;43.95;100860.59;5026248;28;20461;-53
2022/04/04 05:18:22;;;;;;;0.88;0.40;;;;;;;19.07;43.94;100862.22;5025720;28;20130;-49
2022/04/04 05:20:47;;;;;;;2.13;0.50;;;;;;;19.06;43.87;100862.41;5012694;28;20453;-56
2022/04/04 05:23:13;;;;;;;1.83;0.50;;;;;;;19.06;43.95;100862.41;5017663;28;20130;-47
2022/04/04 05:25:40;;;;;;;3.25;0.50;;;;;;;19.04;43.89;100865.25;5024414;28;20030;-43
2022/04/04 05:28:07;;;;;;;1.77;0.50;;;;;;;19.04;43.72;100864.44;5028132;28;20029;-51
2022/04/04 05:30:34;;;;;;;5.22;0.47;;;;;;;19.03;43.83;100860.16;5026824;28;20056;-46
2022/04/04 05:32:59;;;;;;;2.30;0.40;;;;;;;19.03;43.79;100865.44;5027095;28;20030;-49
2022/04/04 05:35:25;;;;;;;2.67;0.40;;;;;;;19.03;43.86;100862.81;5016195;28;20480;-51
2022/04/04 05:37:54;;;;;;;4.20;0.43;;;;;;;19.02;43.76;100869.09;5027323;28;20025;-54
2022/04/04 05:40:23;;;;;;;1.85;0.70;;;;;;;19.02;43.85;100869.09;5024840;28;20033;-49
2022/04/04 05:42:49;;;;;;;1.55;0.40;;;;;;;19.02;43.61;100877.00;5007595;28;20121;-50
2022/04/04 05:45:14;;;;;;;4.78;0.50;;;;;;;19.01;43.75;100872.72;5014004;28;20116;-53
2022/04/04 05:47:41;;;;;;;1.42;0.40;;;;;;;19.00;43.74;100873.75;5025021;28;20462;-48
2022/04/04 05:50:07;;;;;;;1.58;0.68;;;;;;;18.99;43.64;100872.94;5019569;28;20050;-53
2022/04/04 05:52:35;;;;;;;1.58;0.40;;;;;;;18.99;43.58;100883.47;5007557;28;20065;-51
2022/04/04 05:55:02;;;;;;;2.45;0.70;;;;;;;18.97;43.57;100872.28;5014955;28;20029;-47
2022/04/04 05:57:35;;;;;;;1.10;0.35;;;;;;;18.97;43.62;100874.13;5002717;28;20042;-50
2022/04/04 06:00:01;;;;;;;2.17;0.60;;;;;;;18.95;43.58;100874.31;5011369;28;20041;-45
2022/04/04 06:02:27;;;;;;;0.82;0.50;;;;;;;18.94;43.57;100879.78;5011763;28;20044;-47
2022/04/04 06:04:53;;;;;;;1.67;0.40;;;;;;;18.92;43.57;100879.16;5020824;28;20033;-54
2022/04/04 06:07:19;;;;;;;1.60;0.40;;;;;;;18.89;43.68;100883.81;5007038;28;20021;-51
2022/04/04 06:09:45;;;;;;;1.45;0.40;;;;;;;18.89;43.56;100881.19;5023675;28;20500;-49
2022/04/04 06:12:10;;;;;;;2.97;0.40;;;;;;;18.92;43.61;100876.50;5025731;28;20049;-48
2022/04/04 06:14:36;;;;;;;2.35;0.55;;;;;;;18.92;43.56;100877.31;5027191;28;20418;-47
2022/04/04 06:17:06;;;;;;;2.72;0.40;;;;;;;18.94;43.64;100880.59;5026529;28;20029;-51
2022/04/04 06:19:35;;;;;;;2.13;0.60;;;;;;;18.95;43.64;100874.31;5024290;28;20056;-47
2022/04/04 06:22:03;;;;;;;1.67;0.40;;;;;;;18.98;43.82;100881.84;5025154;28;20033;-54
2022/04/04 06:24:30;;;;;;;2.35;0.40;;;;;;;18.99;43.85;100877.38;5026055;28;20468;-53
2022/04/04 06:27:00;;;;;;;2.33;0.40;;;;;;;19.01;43.87;100876.19;5026576;28;20396;-42
2022/04/04 06:29:25;;;;;;;1.63;0.30;;;;;;;19.04;43.91;100870.53;5023061;28;20033;-48
2022/04/04 06:31:51;;;;;;;1.38;0.40;;;;;;;19.07;44.02;100872.78;5006983;28;20036;-53
2022/04/04 06:34:18;;;;;;;1.80;0.35;;;;;;;19.12;44.05;100880.16;5015824;28;20095;-47
2022/04/04 06:36:43;;;;;;;1.30;0.40;;;;;;;19.16;43.94;100876.94;5024761;28;20057;-55
2022/04/04 06:39:09;;;;;;;1.60;0.40;;;;;;;19.22;43.84;100875.38;5022908;28;20520;-47
2022/04/04 06:41:36;;;;;;;1.35;0.43;;;;;;;19.27;43.86;100877.44;5023761;28;20032;-52
2022/04/04 06:44:02;;;;;;;0.70;0.30;;;;;;;19.33;43.77;100880.13;5026584;28;20040;-52
2022/04/04 06:46:28;;;;;;;1.25;0.30;;;;;;;19.38;43.86;100880.34;5024824;28;20030;-51
2022/04/04 06:48:53;;;;;;;1.17;0.38;;;;;;;19.44;43.64;100878.75;5024882;28;20029;-45
2022/04/04 06:51:19;;;;;;;0.60;0.30;;;;;;;19.48;43.70;100874.72;5024037;28;20029;-44
2022/04/04 06:53:45;;;;;;;1.52;0.30;;;;;;;19.51;43.67;100877.84;5025980;28;20098;-46
2022/04/04 06:56:11;;;;;;;1.98;0.30;;;;;;;19.57;43.62;100873.63;5026734;28;20044;-54
2022/04/04 06:58:37;;;;;;;1.00;0.40;;;;;;;19.61;43.58;100880.16;5021148;28;20397;-53
2022/04/04 07:01:03;;;;;;;1.25;0.30;;;;;;;19.64;43.62;100879.75;5023783;28;20025;-53
2022/04/04 07:03:28;;;;;;;1.70;0.30;;;;;;;19.66;43.65;100879.56;5024690;28;20037;-43
2022/04/04 07:05:53;;;;;;;1.48;0.40;;;;;;;19.72;43.81;100874.31;5022400;28;20066;-48
2022/04/04 07:08:19;;;;;;;4.20;0.40;;;;;;;19.79;43.83;100882.31;5025952;28;20218;-56
2022/04/04 07:10:45;;;;;;;3.65;0.60;;;;;;;19.88;43.94;100874.00;5018496;28;20030;-51
2022/04/04 07:13:10;;;;;;;8.18;0.47;;;;;;;19.94;44.92;100877.69;5021318;28;20424;-49
2022/04/04 07:15:36;;;;;;;2.90;0.40;;;;;;;19.95;44.95;100878.50;5027673;28;20032;-48
2022/04/04 07:18:02;;;;;;;1.15;0.40;;;;;;;19.94;45.19;100876.88;5028065;28;20029;-50
2022/04/04 07:20:27;;;;;;;2.00;0.30;;;;;;;19.93;45.14;100881.34;5029127;28;20443;-56
2022/04/04 07:22:54;;;;;;;3.50;0.40;;;;;;;19.93;44.92;100878.69;5028181;28;20022;-54
2022/04/04 07:25:21;;;;;;;1.42;0.40;;;;;;;19.93;44.90;100873.41;5028994;28;20038;-53
2022/04/04 07:27:48;;;;;;;1.10;0.30;;;;;;;19.93;44.63;100876.06;5024298;28;20098;-55
2022/04/04 07:30:19;;;;;;;2.83;0.65;;;;;;;19.92;44.76;100874.41;5026559;28;20076;-54
2022/04/04 07:32:46;;;;;;;3.08;0.60;;;;;;;19.91;44.72;100870.16;5027092;28;20396;-45
2022/04/04 07:35:12;;;;;;;4.13;0.85;;;;;;;19.93;44.78;100881.34;5029750;28;20041;-50
2022/04/04 07:37:42;;;;;;;1.45;0.45;;;;;;;19.92;44.67;100881.53;5030373;28;20029;-49
2022/04/04 07:40:14;;;;;;;3.15;0.40;;;;;;;19.91;44.62;100883.38;5018268;28;20026;-56
2022/04/04 07:42:41;;;;;;;2.60;0.25;;;;;;;19.90;44.33;100887.03;5020350;28;20037;-43
2022/04/04 07:45:09;;;;;;;3.25;0.40;;;;;;;19.88;44.41;100881.91;5027299;28;20124;-48
2022/04/04 07:47:35;;;;;;;4.18;0.40;;;;;;;19.88;44.32;100887.22;5029639;28;20033;-47
2022/04/04 07:50:01;;;;;;;3.60;0.40;;;;;;;19.89;44.41;100883.56;5029895;28;20047;-52
2022/04/04 07:52:27;;;;;;;4.95;0.40;;;;;;;19.89;44.34;100888.03;5030060;28;20034;-42
2022/04/04 07:54:53;;;;;;;2.00;0.40;;;;;;;19.91;44.17;100887.84;5029535;28;20523;-44
2022/04/04 07:57:20;;;;;;;2.17;0.30;;;;;;;19.90;44.02;100887.03;5027678;28;20033;-51
2022/04/04 07:59:46;;;;;;;2.78;0.40;;;;;;;19.89;43.86;100888.84;5023234;28;20021;-49
2022/04/04 08:02:11;;;;;;;2.40;0.50;;;;;;;19.90;43.70;100889.66;5023465;28;20389;-49
2022/04/04 08:04:38;;;;;;;1.75;0.38;;;;;;;19.89;43.33;100891.50;5024181;28;20421;-44
2022/04/04 08:07:04;;;;;;;10.70;0.57;;;;;;;19.86;43.12;100885.78;5029296;28;20049;-45
2022/04/04 08:09:29;;;;;;;25.23;0.85;;;;;;;19.83;42.80;100892.28;5028392;28;20025;-42
2022/04/04 08:11:56;;;;;;;24.80;1.40;;;;;;;19.81;42.50;100893.50;5022868;28;20076;-43
2022/04/04 08:14:23;;;;;;;11.45;1.25;;;;;;;19.80;42.23;100887.41;5010216;28;20449;-41
2022/04/04 08:16:48;;;;;;;9.80;0.70;;;;;;;19.79;42.02;100887.59;5016259;28;20655;-50
2022/04/04 08:19:15;;;;;;;8.75;0.98;;;;;;;19.77;41.83;100886.97;5027875;28;20129;-47
2022/04/04 08:21:41;;;;;;;9.23;0.77;;;;;;;19.76;41.45;100885.34;5027395;28;20120;-48
2022/04/04 08:24:07;;;;;;;5.47;0.90;;;;;;;19.78;42.22;100893.88;5029164;28;20356;-48
2022/04/04 08:26:34;;;;;;;3.95;0.60;;;;;;;19.83;42.15;100886.19;5025330;28;20042;-46
2022/04/04 08:29:00;;;;;;;5.50;0.90;;;;;;;19.87;42.10;100884.75;5021951;28;20029;-51
2022/04/04 08:31:25;;;;;;;4.93;0.80;;;;;;;19.86;41.64;100886.59;5020181;28;20030;-47
2022/04/04 08:33:51;;;;;;;4.63;0.75;;;;;;;19.82;41.81;100882.72;5009416;28;20038;-44
2022/04/04 08:36:16;;;;;;;1.50;0.60;;;;;;;19.77;41.61;100882.50;5025390;28;20034;-43
2022/04/04 08:38:42;;;;;;;1.95;0.80;;;;;;;19.74;41.55;100880.25;5027773;28;20034;-56
2022/04/04 08:41:10;;;;;;;4.35;0.70;;;;;;;19.74;41.46;100892.63;5026377;28;20030;-49
2022/04/04 08:43:40;;;;;;;2.65;0.52;;;;;;;19.72;41.33;100884.09;5029096;28;20132;-51
2022/04/04 08:46:07;;;;;;;2.08;0.50;;;;;;;19.72;41.34;100886.72;5025543;28;20324;-47
2022/04/04 08:48:40;;;;;;;16.50;0.60;;;;;;;19.69;41.29;100884.47;5009166;28;20319;-44
2022/04/04 08:51:09;;;;;;;2.00;0.88;;;;;;;19.71;41.07;100890.38;5024311;28;20025;-47
2022/04/04 08:53:36;;;;;;;2.67;0.60;;;;;;;19.69;41.21;100881.81;5026564;28;20032;-42
2022/04/04 08:56:04;;;;;;;3.33;0.50;;;;;;;19.68;41.08;100880.19;5025008;28;20029;-44
2022/04/04 08:58:30;;;;;;;2.17;0.50;;;;;;;19.68;40.91;100874.91;5023291;28;20036;-46
2022/04/04 09:00:55;;;;;;;1.27;0.50;;;;;;;19.66;40.90;100884.84;5024073;28;20413;-46
2022/04/04 09:03:23;;;;;;;4.50;0.50;;;;;;;19.65;40.68;100877.94;5015358;28;20029;-51
2022/04/04 09:05:56;;;;;;;1.00;0.50;;;;;;;19.62;40.47;100881.78;5028422;28;20022;-49
2022/04/04 09:08:23;;;;;;;1.13;0.50;;;;;;;19.62;40.34;100873.03;5026028;28;20037;-49
2022/04/04 09:10:56;;;;;;;2.22;0.52;;;;;;;19.60;39.64;100875.06;5026864;28;20041;-47
2022/04/04 09:13:24;;;;;;;1.05;0.40;;;;;;;19.60;39.66;100870.59;5026700;28;20409;-48
2022/04/04 09:15:56;;;;;;;1.88;0.60;;;;;;;19.60;39.58;100875.06;5023569;28;20124;-50
2022/04/04 09:18:37;;;;;;;5.35;0.60;;;;;;;19.60;39.43;100873.22;5026424;28;20547;-50
2022/04/04 09:21:04;;;;;;;2.10;0.70;;;;;;;19.63;39.39;100858.81;5026805;28;20037;-46
2022/04/04 09:23:34;;;;;;;2.85;0.50;;;;;;;19.63;38.97;100866.75;5021738;28;20030;-47
2022/04/04 09:26:00;;;;;;;2.53;0.50;;;;;;;19.63;38.18;100866.75;5024877;28;20037;-50
2022/04/04 09:28:26;;;;;;;2.03;0.40;;;;;;;19.62;37.85;100860.63;5027641;28;20025;-47
2022/04/04 09:31:07;;;;;;;2.97;0.63;;;;;;;19.61;37.96;100863.47;5024832;28;20177;-47
2022/04/04 09:33:38;;;;;;;1.15;0.40;;;;;;;19.62;38.00;100858.00;5027336;28;20030;-47
2022/04/04 09:36:05;;;;;;;1.70;0.50;;;;;;;19.63;38.03;100854.34;5022870;28;20552;-44
2022/04/04 09:38:33;;;;;;;1.55;0.60;;;;;;;19.63;37.84;100856.97;5021767;28;20030;-51
2022/04/04 09:41:24;;;;;;;1.40;0.57;;;;;;;19.61;37.48;100855.53;5012592;28;20116;-44
2022/04/04 09:43:53;;;;;;;2.25;0.50;;;;;;;19.59;37.74;100847.81;5004705;28;20037;-47
2022/04/04 09:46:20;;;;;;;0.95;0.30;;;;;;;19.58;37.79;100850.63;5015381;28;20033;-44
2022/04/04 09:49:13;;;;;;;1.75;0.43;;;;;;;19.52;37.70;100847.75;5024674;28;20052;-44
2022/04/04 09:51:39;;;;;;;0.95;0.55;;;;;;;19.50;38.15;100839.19;5021616;28;20129;-43
2022/04/04 09:54:29;;;;;;;1.85;0.70;;;;;;;19.50;38.16;100843.66;5024230;28;20041;-46
2022/04/04 09:57:12;;;;;;;2.47;0.60;;;;;;;19.45;38.42;100836.28;5006207;28;20033;-49
2022/04/04 09:59:38;;;;;;;5.43;0.57;;;;;;;19.46;38.76;100835.28;5010627;28;20038;-43
2022/04/04 10:02:05;;;;;;;4.90;0.93;;;;;;;19.47;38.89;100833.47;5021119;28;20040;-45
2022/04/04 10:04:32;;;;;;;28.13;3.70;;;;;;;19.47;42.12;100834.28;5027593;28;20048;-45
2022/04/04 10:06:58;;;;;;;12.95;1.55;;;;;;;19.49;42.56;100826.16;5024211;28;20095;-43
2022/04/04 10:09:26;;;;;;;8.27;1.17;;;;;;;19.48;42.02;100825.34;5025645;28;20037;-46
2022/04/04 10:11:52;;;;;;;6.07;0.98;;;;;;;19.46;40.68;100818.63;5016515;28;20037;-44
2022/04/04 10:14:19;;;;;;;6.55;1.13;;;;;;;19.43;39.46;100822.47;5027186;28;20429;-46
2022/04/04 10:16:47;;;;;;;5.85;0.80;;;;;;;19.40;38.37;100817.56;5024872;28;20049;-41
2022/04/04 10:19:14;;;;;;;2.10;0.52;;;;;;;19.38;37.68;100811.66;5020596;28;20028;-48
2022/04/04 10:21:40;;;;;;;8.52;1.23;;;;;;;19.38;37.50;100811.66;4999855;28;20038;-48
2022/04/04 10:24:09;;;;;;;3.92;1.35;;;;;;;19.37;37.51;100812.69;5001129;28;20030;-49
2022/04/04 10:26:35;;;;;;;11.65;1.48;;;;;;;19.36;37.59;100811.06;5017071;28;20026;-46
2022/04/04 10:29:19;;;;;;;17.85;1.63;;;;;;;19.33;37.90;100802.69;5007081;28;20143;-47
2022/04/04 10:31:55;;;;;;;6.70;1.17;;;;;;;19.33;38.27;100808.00;5001673;28;20111;-55
2022/04/04 10:34:23;;;;;;;13.50;1.77;;;;;;;19.33;38.63;100808.00;5000599;28;20124;-47
2022/04/04 10:37:07;;;;;;;13.93;1.77;;;;;;;19.31;38.80;100805.53;5005004;28;20109;-46
2022/04/04 10:39:44;;;;;;;20.17;1.73;;;;;;;19.29;38.99;100801.47;5000442;28;20605;-50
2022/04/04 10:42:33;;;;;;;15.57;2.20;;;;;;;19.28;39.59;100800.63;5006244;28;20363;-45
2022/04/04 10:45:05;;;;;;;13.57;1.60;;;;;;;19.31;40.39;100792.34;5001432;28;20055;-50
2022/04/04 10:47:31;;;;;;;11.15;2.17;;;;;;;19.43;40.73;100795.22;5002416;28;20486;-48
2022/04/04 10:50:17;;;;;;;9.68;1.58;;;;;;;19.50;41.32;100791.63;5004049;28;20044;-56
2022/04/04 10:52:44;;;;;;;12.95;1.83;;;;;;;19.61;41.73;100786.81;5001698;28;20482;-52
2022/04/04 10:55:28;;;;;;;8.77;1.85;;;;;;;19.73;42.78;100780.78;5004178;28;20355;-49
2022/04/04 10:58:22;;;;;;;11.60;2.58;;;;;;;19.93;49.36;100778.22;5004317;28;20049;-56
2022/04/04 11:01:20;;;;;;;7.03;2.60;;;;;;;20.11;52.55;100789.06;5006446;28;20076;-53
2022/04/04 11:03:51;;;;;;;15.90;4.55;;;;;;;20.25;54.51;100787.28;5001915;28;20037;-60
2022/04/04 11:09:11;;;;;;;7.47;2.35;;;;;;;20.41;55.46;100778.16;5006555;28;20052;-45
2022/04/04 11:11:54;;;;;;;7.57;2.25;;;;;;;20.27;54.09;100781.78;4996069;28;20045;-48
2022/04/04 11:14:31;;;;;;;6.55;1.33;;;;;;;20.08;51.19;100773.59;5000278;28;20133;-48
2022/04/04 11:17:05;;;;;;;3.67;1.10;;;;;;;19.95;50.24;100778.00;5001969;28;20044;-47
2022/04/04 11:19:44;;;;;;;10.75;1.30;;;;;;;19.84;49.27;100787.34;4998494;28;20417;-53
2022/04/04 11:22:15;;;;;;;7.70;1.45;;;;;;;19.81;47.85;100788.56;5001098;28;20486;-46
2022/04/04 11:24:42;;;;;;;5.20;0.82;;;;;;;19.78;47.03;100783.66;5002503;28;20614;-53
2022/04/04 11:27:08;;;;;;;4.93;0.88;;;;;;;19.79;46.65;100781.84;5004027;28;20112;-50
2022/04/04 11:29:36;;;;;;;10.45;1.33;;;;;;;19.76;46.61;100779.59;5004769;28;20109;-55
2022/04/04 11:32:02;;;;;;;6.68;1.45;;;;;;;19.75;46.18;100777.94;5019004;28;20034;-57
2022/04/04 11:34:31;;;;;;;8.10;1.00;;;;;;;19.73;45.41;100774.69;5003143;28;20038;-52
2022/04/04 11:36:58;;;;;;;7.63;1.30;;;;;;;19.71;45.08;100776.72;5002813;28;20129;-54